Time;durP1;ratioP1;P1;durP2;ratioP2;P2;SDS_P1;SDS_P2;PMS_P1;PMS_P2;Temp;Humidity;BMP_temperature;BMP_pressure;BME280_temperature;BME280_humidity;BME280_pressure;Samples;Min_cycle;Max_cycle;Signal;HPM_P1;HPM_P2
2022/12/20 00:00:44;;;;;;;14.02;6.80;;;;;;;;;;4820549;29;20045;-73
2022/12/20 00:03:10;;;;;;;6.75;4.40;;;;;;;;;;4817193;29;20141;-73
2022/12/20 00:05:37;;;;;;;7.55;5.15;;;;;;;;;;4801102;29;20148;-73
2022/12/20 00:08:03;;;;;;;10.15;5.38;;;;;;;;;;4815140;29;20525;-73
2022/12/20 00:10:29;;;;;;;7.80;5.35;;;;;;;;;;4816819;29;20045;-74
2022/12/20 00:12:55;;;;;;;11.48;5.65;;;;;;;;;;4816457;29;20081;-74
2022/12/20 00:15:21;;;;;;;8.23;4.00;;;;;;;;;;4797816;29;20105;-73
2022/12/20 00:17:47;;;;;;;8.98;5.28;;;;;;;;;;4799946;29;20054;-73
2022/12/20 00:20:13;;;;;;;9.32;5.70;;;;;;;;;;4799325;29;20382;-73
2022/12/20 00:22:39;;;;;;;8.88;6.10;;;;;;;;;;4798693;29;20966;-73
2022/12/20 00:25:06;;;;;;;7.38;4.60;;;;;;;;;;4810696;29;20084;-73
2022/12/20 00:27:32;;;;;;;11.90;5.95;;;;;;;;;;4830366;29;21778;-73
2022/12/20 00:29:58;;;;;;;6.93;4.82;;;;;;;;;;4813695;29;20065;-73
2022/12/20 00:32:24;;;;;;;8.70;5.63;;;;;;;;;;4811881;29;20042;-73
2022/12/20 00:34:50;;;;;;;6.50;4.47;;;;;;;;;;4803271;29;20081;-73
2022/12/20 00:37:16;;;;;;;9.55;4.85;;;;;;;;;;4826087;29;21526;-73
2022/12/20 00:39:42;;;;;;;8.75;5.68;;;;;;;;;;4814392;29;20061;-73
2022/12/20 00:42:08;;;;;;;7.15;5.65;;;;;;;;;;4811171;29;20623;-73
2022/12/20 00:44:34;;;;;;;7.13;4.50;;;;;;;;;;4817495;29;20686;-73
2022/12/20 00:47:00;;;;;;;7.93;5.47;;;;;;;;;;4804511;29;20084;-73
2022/12/20 00:49:26;;;;;;;11.52;6.25;;;;;;;;;;4816664;29;20050;-73
2022/12/20 00:51:52;;;;;;;6.78;3.90;;;;;;;;;;4813709;29;20825;-73
2022/12/20 00:54:18;;;;;;;7.25;4.93;;;;;;;;;;4802042;29;20419;-73
2022/12/20 00:56:44;;;;;;;6.90;5.15;;;;;;;;;;4813811;29;20107;-73
2022/12/20 00:59:10;;;;;;;9.82;5.53;;;;;;;;;;4826906;29;20042;-74
2022/12/20 01:01:36;;;;;;;6.40;4.63;;;;;;;;;;4812144;29;20091;-74
2022/12/20 01:04:03;;;;;;;7.53;4.57;;;;;;;;;;4798878;29;20057;-73
2022/12/20 01:06:29;;;;;;;6.75;4.50;;;;;;;;;;4815565;29;20537;-73
2022/12/20 01:08:56;;;;;;;8.27;4.90;;;;;;;;;;4816056;29;20326;-74
2022/12/20 01:11:24;;;;;;;4.57;4.15;;;;;;;;;;4814309;29;20679;-74
2022/12/20 01:13:51;;;;;;;5.72;4.10;;;;;;;;;;4821514;29;20061;-74
2022/12/20 01:16:19;;;;;;;7.18;4.03;;;;;;;;;;4817129;29;20519;-74
2022/12/20 01:18:45;;;;;;;5.82;3.95;;;;;;;;;;4810703;29;20042;-74
2022/12/20 01:21:15;;;;;;;7.60;4.65;;;;;;;;;;4827778;29;20046;-74
2022/12/20 01:23:41;;;;;;;4.72;4.03;;;;;;;;;;4828191;29;22416;-74
2022/12/20 01:26:09;;;;;;;7.60;4.60;;;;;;;;;;4816762;29;20053;-74
2022/12/20 01:28:36;;;;;;;7.95;4.05;;;;;;;;;;4802462;29;20049;-73
2022/12/20 01:31:05;;;;;;;5.15;4.18;;;;;;;;;;4814371;29;20494;-74
2022/12/20 01:33:31;;;;;;;5.90;4.00;;;;;;;;;;4816534;29;20041;-75
2022/12/20 01:35:58;;;;;;;7.22;4.70;;;;;;;;;;4821894;29;20153;-74
2022/12/20 01:38:24;;;;;;;7.88;3.97;;;;;;;;;;4812077;29;20062;-75
2022/12/20 01:40:50;;;;;;;10.15;4.93;;;;;;;;;;4807311;29;20057;-74
2022/12/20 01:43:17;;;;;;;4.70;3.78;;;;;;;;;;4824903;29;20061;-74
2022/12/20 01:45:43;;;;;;;5.82;4.18;;;;;;;;;;4823636;29;20094;-74
2022/12/20 01:48:10;;;;;;;8.40;4.18;;;;;;;;;;4810240;29;20045;-74
2022/12/20 01:50:36;;;;;;;5.20;3.88;;;;;;;;;;4823276;29;20046;-73
2022/12/20 01:53:04;;;;;;;4.43;3.85;;;;;;;;;;4827564;29;20543;-73
2022/12/20 01:55:31;;;;;;;3.92;3.28;;;;;;;;;;4808646;29;20069;-73
2022/12/20 01:58:02;;;;;;;6.18;4.03;;;;;;;;;;4824514;29;20122;-73
2022/12/20 02:00:28;;;;;;;7.15;4.35;;;;;;;;;;4825949;29;20423;-73
2022/12/20 02:02:55;;;;;;;6.45;4.47;;;;;;;;;;4808943;29;20535;-73
2022/12/20 02:05:23;;;;;;;8.18;4.20;;;;;;;;;;4814947;29;20103;-73
2022/12/20 02:07:51;;;;;;;7.28;4.30;;;;;;;;;;4823120;29;20134;-73
2022/12/20 02:10:18;;;;;;;5.68;3.92;;;;;;;;;;4811747;29;20053;-73
2022/12/20 02:12:45;;;;;;;6.30;4.25;;;;;;;;;;4815729;29;20086;-73
2022/12/20 02:15:30;;;;;;;6.72;4.32;;;;;;;;;;4814458;29;20050;-73
2022/12/20 02:18:15;;;;;;;4.45;3.67;;;;;;;;;;4815807;29;20050;-73
2022/12/20 02:21:03;;;;;;;7.70;4.57;;;;;;;;;;4813760;29;20737;-73
2022/12/20 02:23:44;;;;;;;5.45;4.25;;;;;;;;;;4808557;29;20121;-73
2022/12/20 02:26:29;;;;;;;4.45;3.63;;;;;;;;;;4813597;29;20089;-73
2022/12/20 02:29:14;;;;;;;6.10;3.78;;;;;;;;;;4817027;29;20057;-73
2022/12/20 02:31:48;;;;;;;5.90;3.80;;;;;;;;;;4815548;29;20122;-73
2022/12/20 02:34:15;;;;;;;6.85;3.65;;;;;;;;;;4811089;29;20061;-73
2022/12/20 02:36:41;;;;;;;6.38;3.65;;;;;;;;;;4825580;29;20046;-74
2022/12/20 02:39:09;;;;;;;6.93;3.65;;;;;;;;;;4814076;29;20046;-73
2022/12/20 02:41:38;;;;;;;6.20;3.88;;;;;;;;;;4814836;29;20056;-73
2022/12/20 02:46:55;;;;;;;5.60;3.65;;;;;;;;;;4832145;29;20428;-73
2022/12/20 02:49:23;;;;;;;4.25;3.30;;;;;;;;;;4814019;29;20057;-73
2022/12/20 02:51:51;;;;;;;6.55;3.63;;;;;;;;;;4818099;29;20106;-74
2022/12/20 02:54:18;;;;;;;5.82;2.65;;;;;;;;;;4819203;29;21902;-73
2022/12/20 02:56:46;;;;;;;7.05;4.07;;;;;;;;;;4815210;29;20061;-73
2022/12/20 02:59:21;;;;;;;4.63;4.00;;;;;;;;;;4814302;29;20077;-73
2022/12/20 03:01:49;;;;;;;4.80;3.80;;;;;;;;;;4820967;29;20068;-73
2022/12/20 03:04:16;;;;;;;4.32;3.60;;;;;;;;;;4817438;29;20087;-73
2022/12/20 03:06:57;;;;;;;4.53;3.78;;;;;;;;;;4830221;29;20521;-73
2022/12/20 03:09:23;;;;;;;4.75;3.65;;;;;;;;;;4822921;29;20129;-74
2022/12/20 03:11:50;;;;;;;4.22;3.50;;;;;;;;;;4820750;29;20132;-74
2022/12/20 03:14:16;;;;;;;4.22;3.05;;;;;;;;;;4801817;29;20053;-74
2022/12/20 03:16:42;;;;;;;5.55;3.50;;;;;;;;;;4818068;29;20137;-74
2022/12/20 03:19:11;;;;;;;3.30;3.00;;;;;;;;;;4818410;29;20085;-74
2022/12/20 03:21:37;;;;;;;5.03;3.13;;;;;;;;;;4829308;29;20037;-74
2022/12/20 03:24:04;;;;;;;5.18;3.65;;;;;;;;;;4807923;29;20049;-74
2022/12/20 03:26:30;;;;;;;3.60;2.72;;;;;;;;;;4834169;29;20042;-74
2022/12/20 03:28:56;;;;;;;6.85;4.32;;;;;;;;;;4820357;29;20153;-73
2022/12/20 03:31:22;;;;;;;7.32;3.70;;;;;;;;;;4825222;29;20054;-73
2022/12/20 03:33:48;;;;;;;10.82;4.63;;;;;;;;;;4819824;29;20109;-73
2022/12/20 03:36:15;;;;;;;8.32;4.38;;;;;;;;;;4827735;29;20038;-74
2022/12/20 03:38:41;;;;;;;4.47;3.63;;;;;;;;;;4809951;29;20065;-74
2022/12/20 03:41:07;;;;;;;6.72;4.75;;;;;;;;;;4815198;29;21909;-74
2022/12/20 03:43:33;;;;;;;6.05;4.60;;;;;;;;;;4799088;29;20557;-74
2022/12/20 03:45:59;;;;;;;6.22;4.18;;;;;;;;;;4815193;29;20081;-73
2022/12/20 03:48:25;;;;;;;7.40;3.97;;;;;;;;;;4801397;29;20049;-74
2022/12/20 03:50:51;;;;;;;5.55;4.28;;;;;;;;;;4814089;29;20498;-74
2022/12/20 03:53:17;;;;;;;7.50;4.60;;;;;;;;;;4805779;29;20503;-74
2022/12/20 03:55:43;;;;;;;7.65;4.85;;;;;;;;;;4803253;29;20414;-74
2022/12/20 03:58:09;;;;;;;5.47;4.28;;;;;;;;;;4805757;29;20034;-74
2022/12/20 04:00:35;;;;;;;11.48;4.00;;;;;;;;;;4816178;29;20042;-74
2022/12/20 04:03:01;;;;;;;5.10;4.60;;;;;;;;;;4818452;29;21223;-74
2022/12/20 04:05:27;;;;;;;7.85;4.75;;;;;;;;;;4814641;29;20158;-75
2022/12/20 04:07:53;;;;;;;5.88;4.30;;;;;;;;;;4816084;29;20643;-73
2022/12/20 04:10:19;;;;;;;7.60;4.90;;;;;;;;;;4820279;29;20053;-74
2022/12/20 04:12:45;;;;;;;6.90;4.43;;;;;;;;;;4812331;29;20045;-74
2022/12/20 04:15:12;;;;;;;6.63;4.60;;;;;;;;;;4811635;29;20088;-74
2022/12/20 04:17:38;;;;;;;4.35;3.20;;;;;;;;;;4793735;29;21593;-74
2022/12/20 04:20:17;;;;;;;7.50;5.10;;;;;;;;;;4813409;29;20072;-74
2022/12/20 04:22:47;;;;;;;6.57;4.22;;;;;;;;;;4825348;29;20561;-74
2022/12/20 04:25:14;;;;;;;6.72;4.40;;;;;;;;;;4825692;29;20410;-74
2022/12/20 04:27:40;;;;;;;6.55;3.88;;;;;;;;;;4813968;29;20565;-74
2022/12/20 04:30:06;;;;;;;9.90;4.40;;;;;;;;;;4807994;29;20399;-74
2022/12/20 04:32:32;;;;;;;6.80;4.53;;;;;;;;;;4809716;29;20061;-74
2022/12/20 04:34:58;;;;;;;6.13;4.53;;;;;;;;;;4800735;29;20487;-74
2022/12/20 04:37:24;;;;;;;5.85;4.30;;;;;;;;;;4826134;29;20042;-74
2022/12/20 04:39:50;;;;;;;8.52;5.22;;;;;;;;;;4812636;29;20053;-74
2022/12/20 04:42:16;;;;;;;6.57;4.28;;;;;;;;;;4794261;29;20206;-74
2022/12/20 04:44:42;;;;;;;8.68;4.60;;;;;;;;;;4807015;29;20074;-74
2022/12/20 04:47:09;;;;;;;5.82;4.45;;;;;;;;;;4812997;29;20054;-74
2022/12/20 04:49:35;;;;;;;7.28;4.93;;;;;;;;;;4826641;29;20516;-74
2022/12/20 04:53:46;;;;;;;5.38;4.53;;;;;;;;;;4821363;29;20049;-74
2022/12/20 04:54:47;;;;;;;4.88;4.05;;;;;;;;;;4808305;29;20063;-73
2022/12/20 04:57:13;;;;;;;7.70;4.65;;;;;;;;;;4805032;29;20107;-73
2022/12/20 04:59:39;;;;;;;7.00;5.03;;;;;;;;;;4811753;29;20053;-73
2022/12/20 05:02:05;;;;;;;9.88;4.78;;;;;;;;;;4798181;29;20081;-73
2022/12/20 05:04:32;;;;;;;6.32;4.72;;;;;;;;;;4805381;29;20675;-73
2022/12/20 05:06:58;;;;;;;9.45;5.55;;;;;;;;;;4817878;29;20050;-74
2022/12/20 05:09:24;;;;;;;7.28;4.53;;;;;;;;;;4801988;29;20196;-74
2022/12/20 05:11:50;;;;;;;8.18;4.80;;;;;;;;;;4817607;29;20071;-74
2022/12/20 05:14:16;;;;;;;6.32;4.93;;;;;;;;;;4831582;29;20057;-74
2022/12/20 05:16:42;;;;;;;9.88;5.30;;;;;;;;;;4812732;29;20072;-74
2022/12/20 05:19:08;;;;;;;8.63;5.30;;;;;;;;;;4813276;29;20682;-74
2022/12/20 05:27:03;;;;;;;11.82;5.63;;;;;;;;;;4804263;29;20052;-73
2022/12/20 05:29:29;;;;;;;6.63;5.00;;;;;;;;;;4786231;29;20734;-73
2022/12/20 05:31:55;;;;;;;6.20;5.05;;;;;;;;;;4819408;29;22130;-74
2022/12/20 05:34:21;;;;;;;10.30;4.82;;;;;;;;;;4807386;29;20053;-74
2022/12/20 05:36:47;;;;;;;7.63;4.55;;;;;;;;;;4820686;29;20618;-74
2022/12/20 05:39:14;;;;;;;5.50;4.63;;;;;;;;;;4821712;29;20520;-74
2022/12/20 05:41:40;;;;;;;6.50;4.57;;;;;;;;;;4800932;29;20066;-74
2022/12/20 05:44:06;;;;;;;7.95;4.50;;;;;;;;;;4823692;29;20681;-74
2022/12/20 05:46:32;;;;;;;7.07;4.05;;;;;;;;;;4815645;29;20582;-73
2022/12/20 05:48:58;;;;;;;4.95;4.13;;;;;;;;;;4803969;29;20149;-73
2022/12/20 05:51:25;;;;;;;6.50;5.05;;;;;;;;;;4805520;29;21535;-74
2022/12/20 05:53:51;;;;;;;5.28;4.60;;;;;;;;;;4823162;29;20060;-74
2022/12/20 05:56:17;;;;;;;4.45;3.72;;;;;;;;;;4800375;29;20046;-74
2022/12/20 05:58:43;;;;;;;7.40;4.80;;;;;;;;;;4811999;29;20085;-72
2022/12/20 06:01:09;;;;;;;8.68;4.55;;;;;;;;;;4808654;29;20451;-72
2022/12/20 06:03:36;;;;;;;5.22;3.72;;;;;;;;;;4811154;29;20061;-72
2022/12/20 06:06:02;;;;;;;8.73;5.32;;;;;;;;;;4808273;29;20092;-72
2022/12/20 06:08:28;;;;;;;3.30;3.00;;;;;;;;;;4820642;29;20056;-72
2022/12/20 06:10:54;;;;;;;5.45;4.18;;;;;;;;;;4811731;29;20072;-72
2022/12/20 06:13:20;;;;;;;5.13;4.10;;;;;;;;;;4813576;29;20050;-72
2022/12/20 06:15:47;;;;;;;6.35;3.70;;;;;;;;;;4816784;29;20053;-72
2022/12/20 06:18:13;;;;;;;7.47;3.63;;;;;;;;;;4810038;29;20045;-72
2022/12/20 06:20:39;;;;;;;6.88;3.60;;;;;;;;;;4812902;29;20049;-72
2022/12/20 06:23:06;;;;;;;6.80;3.95;;;;;;;;;;4811374;29;20061;-72
2022/12/20 06:25:32;;;;;;;4.43;3.53;;;;;;;;;;4811981;29;20054;-72
2022/12/20 06:27:58;;;;;;;6.20;3.85;;;;;;;;;;4828229;29;20054;-72
2022/12/20 06:30:24;;;;;;;4.10;3.67;;;;;;;;;;4786465;29;20057;-71
2022/12/20 06:32:50;;;;;;;7.18;4.10;;;;;;;;;;4791864;29;20050;-71
2022/12/20 06:35:16;;;;;;;4.93;3.67;;;;;;;;;;4805777;29;20062;-71
2022/12/20 06:37:43;;;;;;;5.78;4.10;;;;;;;;;;4810678;29;22308;-71
2022/12/20 06:40:10;;;;;;;5.90;3.95;;;;;;;;;;4797046;29;20093;-71
2022/12/20 06:42:37;;;;;;;7.30;3.58;;;;;;;;;;4786503;29;20424;-71
2022/12/20 06:45:03;;;;;;;7.57;4.18;;;;;;;;;;4802559;29;20085;-71
2022/12/20 06:47:29;;;;;;;5.45;3.47;;;;;;;;;;4791559;29;20180;-71
2022/12/20 06:49:55;;;;;;;5.18;3.85;;;;;;;;;;4792506;29;20042;-71
2022/12/20 06:52:22;;;;;;;6.80;4.30;;;;;;;;;;4803205;29;20057;-72
2022/12/20 06:54:48;;;;;;;5.28;3.97;;;;;;;;;;4796782;29;20050;-72
2022/12/20 06:57:14;;;;;;;5.75;3.45;;;;;;;;;;4808471;29;20049;-72
2022/12/20 06:59:40;;;;;;;5.63;3.92;;;;;;;;;;4792658;29;20062;-72
2022/12/20 07:02:06;;;;;;;5.85;3.70;;;;;;;;;;4792380;29;20066;-72
2022/12/20 07:04:32;;;;;;;6.03;3.78;;;;;;;;;;4795957;29;20456;-72
2022/12/20 07:06:58;;;;;;;7.30;3.33;;;;;;;;;;4807833;29;20675;-72
2022/12/20 07:09:24;;;;;;;7.55;3.90;;;;;;;;;;4789412;29;20679;-72
2022/12/20 07:11:51;;;;;;;6.80;3.47;;;;;;;;;;4794346;29;20471;-72
2022/12/20 07:14:17;;;;;;;5.55;3.78;;;;;;;;;;4796878;29;20049;-72
2022/12/20 07:16:43;;;;;;;5.03;3.30;;;;;;;;;;4793883;29;20112;-72
2022/12/20 07:19:13;;;;;;;5.10;3.35;;;;;;;;;;4808007;29;20046;-72
2022/12/20 07:21:39;;;;;;;4.90;3.42;;;;;;;;;;4794670;29;20132;-72
2022/12/20 07:24:05;;;;;;;8.75;4.10;;;;;;;;;;4803639;29;20136;-72
2022/12/20 07:26:31;;;;;;;4.00;3.33;;;;;;;;;;4795457;29;20046;-72
2022/12/20 07:28:57;;;;;;;5.63;3.75;;;;;;;;;;4807770;29;20129;-72
2022/12/20 07:31:23;;;;;;;5.13;4.10;;;;;;;;;;4790515;29;20085;-72
2022/12/20 07:33:50;;;;;;;6.03;4.28;;;;;;;;;;4774974;29;20042;-71
2022/12/20 07:36:16;;;;;;;6.43;4.93;;;;;;;;;;4792188;29;20131;-72
2022/12/20 07:38:43;;;;;;;9.48;5.68;;;;;;;;;;4799890;29;20098;-72
2022/12/20 07:41:10;;;;;;;6.43;4.93;;;;;;;;;;4809238;29;20169;-72
2022/12/20 07:43:36;;;;;;;7.93;5.40;;;;;;;;;;4794917;29;20054;-72
2022/12/20 07:46:03;;;;;;;8.02;5.90;;;;;;;;;;4808672;29;20076;-71
2022/12/20 07:48:29;;;;;;;8.73;5.90;;;;;;;;;;4826257;29;20073;-71
2022/12/20 07:50:58;;;;;;;6.35;5.40;;;;;;;;;;4808367;29;20068;-71
2022/12/20 07:53:25;;;;;;;8.40;6.60;;;;;;;;;;4805301;29;20049;-71
2022/12/20 07:55:52;;;;;;;10.63;6.50;;;;;;;;;;4814147;29;20081;-71
2022/12/20 07:58:18;;;;;;;9.48;6.47;;;;;;;;;;4810727;29;20049;-71
2022/12/20 08:00:45;;;;;;;7.28;6.03;;;;;;;;;;4810523;29;20194;-74
2022/12/20 08:03:13;;;;;;;8.80;7.05;;;;;;;;;;4814969;29;20049;-75
2022/12/20 08:05:41;;;;;;;8.68;6.53;;;;;;;;;;4814196;29;20128;-75
2022/12/20 08:08:08;;;;;;;9.82;6.15;;;;;;;;;;4814509;29;20137;-75
2022/12/20 08:10:34;;;;;;;9.15;7.10;;;;;;;;;;4809247;29;20056;-76
2022/12/20 08:13:00;;;;;;;8.13;6.03;;;;;;;;;;4811515;29;20045;-75
2022/12/20 08:15:28;;;;;;;10.30;7.13;;;;;;;;;;4827067;29;20635;-76
2022/12/20 08:17:54;;;;;;;9.40;7.03;;;;;;;;;;4807842;29;20049;-75
2022/12/20 08:20:20;;;;;;;8.40;7.50;;;;;;;;;;4813577;29;20452;-75
2022/12/20 08:22:46;;;;;;;9.63;7.28;;;;;;;;;;4820683;29;20575;-75
2022/12/20 08:25:12;;;;;;;9.15;7.63;;;;;;;;;;4814589;29;20045;-76
2022/12/20 08:27:38;;;;;;;9.30;6.85;;;;;;;;;;4811522;29;20571;-75
2022/12/20 08:30:07;;;;;;;12.82;7.45;;;;;;;;;;4818989;29;20064;-75
2022/12/20 08:32:33;;;;;;;8.13;7.32;;;;;;;;;;4811265;29;20106;-75
2022/12/20 08:34:59;;;;;;;8.32;7.00;;;;;;;;;;4807184;29;20057;-75
2022/12/20 08:37:26;;;;;;;7.45;6.68;;;;;;;;;;4827721;29;20053;-76
2022/12/20 08:39:53;;;;;;;11.52;7.57;;;;;;;;;;4807745;29;20069;-75
2022/12/20 08:42:19;;;;;;;7.45;6.60;;;;;;;;;;4793589;29;20524;-75
2022/12/20 08:44:45;;;;;;;12.70;7.28;;;;;;;;;;4807443;29;20665;-74
2022/12/20 08:47:11;;;;;;;7.72;6.88;;;;;;;;;;4812429;29;20057;-75
2022/12/20 08:49:37;;;;;;;9.52;7.13;;;;;;;;;;4808434;29;20050;-75
2022/12/20 08:52:03;;;;;;;11.20;7.43;;;;;;;;;;4814799;29;20050;-75
2022/12/20 08:54:29;;;;;;;10.55;6.97;;;;;;;;;;4805418;29;20058;-74
2022/12/20 08:56:55;;;;;;;9.93;6.68;;;;;;;;;;4806569;29;20407;-75
2022/12/20 08:59:21;;;;;;;12.35;7.07;;;;;;;;;;4814671;29;20206;-75
2022/12/20 09:01:47;;;;;;;13.73;6.85;;;;;;;;;;4812912;29;20045;-75
2022/12/20 09:04:14;;;;;;;8.45;6.30;;;;;;;;;;4813411;29;20050;-75
2022/12/20 09:06:40;;;;;;;8.95;6.40;;;;;;;;;;4816535;29;20041;-75
2022/12/20 09:09:06;;;;;;;9.82;6.30;;;;;;;;;;4827496;29;20052;-75
2022/12/20 09:11:33;;;;;;;7.60;6.53;;;;;;;;;;4819325;29;20400;-74
2022/12/20 09:13:59;;;;;;;7.30;5.60;;;;;;;;;;4812477;29;20680;-74
2022/12/20 09:16:29;;;;;;;8.30;4.88;;;;;;;;;;4806506;29;20093;-75
2022/12/20 09:18:56;;;;;;;7.13;5.63;;;;;;;;;;4794187;29;20091;-76
2022/12/20 09:21:23;;;;;;;8.75;6.03;;;;;;;;;;4814977;29;20053;-76
2022/12/20 09:23:52;;;;;;;6.05;5.40;;;;;;;;;;4812270;29;20506;-76
2022/12/20 09:26:19;;;;;;;7.45;5.38;;;;;;;;;;4801903;29;20053;-75
2022/12/20 09:28:46;;;;;;;9.65;5.85;;;;;;;;;;4804332;29;20541;-75
2022/12/20 09:31:17;;;;;;;6.88;5.20;;;;;;;;;;4796061;29;20056;-75
2022/12/20 09:33:43;;;;;;;8.77;4.70;;;;;;;;;;4812095;29;20058;-74
2022/12/20 09:36:28;;;;;;;7.45;4.97;;;;;;;;;;4811398;29;20502;-76
2022/12/20 09:38:55;;;;;;;8.00;4.45;;;;;;;;;;4802049;29;20058;-75
2022/12/20 09:41:37;;;;;;;9.50;4.28;;;;;;;;;;4812861;29;20045;-75
2022/12/20 09:44:06;;;;;;;4.95;4.40;;;;;;;;;;4811085;29;20510;-75
2022/12/20 09:46:32;;;;;;;7.82;4.28;;;;;;;;;;4811348;29;20053;-75
2022/12/20 09:48:58;;;;;;;5.38;4.03;;;;;;;;;;4813196;29;20046;-76
2022/12/20 09:51:33;;;;;;;5.50;4.13;;;;;;;;;;4813272;29;20140;-75
2022/12/20 09:54:28;;;;;;;5.90;4.40;;;;;;;;;;4799463;29;20045;-76
2022/12/20 09:57:00;;;;;;;5.68;3.95;;;;;;;;;;4774055;29;20051;-76
2022/12/20 09:59:26;;;;;;;5.72;3.92;;;;;;;;;;4814510;29;20457;-76
2022/12/20 10:01:53;;;;;;;6.15;3.75;;;;;;;;;;4811449;29;20790;-75
2022/12/20 10:04:23;;;;;;;6.65;3.95;;;;;;;;;;4831607;29;20552;-75
2022/12/20 10:06:59;;;;;;;7.10;4.20;;;;;;;;;;4809244;29;20052;-76
2022/12/20 10:09:34;;;;;;;4.20;3.10;;;;;;;;;;4802738;29;20114;-75
2022/12/20 10:12:14;;;;;;;4.60;3.45;;;;;;;;;;4815448;29;20053;-76
2022/12/20 10:14:59;;;;;;;5.85;3.75;;;;;;;;;;4801409;29;20056;-75
2022/12/20 10:17:28;;;;;;;4.03;3.45;;;;;;;;;;4798997;29;20045;-75
2022/12/20 10:20:00;;;;;;;6.13;3.92;;;;;;;;;;4828531;29;20098;-75
2022/12/20 10:22:33;;;;;;;3.63;2.85;;;;;;;;;;4802972;29;20068;-74
2022/12/20 10:25:13;;;;;;;9.07;2.97;;;;;;;;;;4815765;29;20056;-75
2022/12/20 10:27:43;;;;;;;4.25;3.47;;;;;;;;;;4827980;29;20046;-75
2022/12/20 10:30:14;;;;;;;4.40;2.80;;;;;;;;;;4826772;29;20133;-75
2022/12/20 10:32:42;;;;;;;5.80;3.30;;;;;;;;;;4802427;29;20052;-75
2022/12/20 10:35:20;;;;;;;3.78;2.88;;;;;;;;;;4799170;29;20060;-75
2022/12/20 10:38:03;;;;;;;4.03;2.63;;;;;;;;;;4819097;29;20451;-75
2022/12/20 10:40:34;;;;;;;6.25;3.10;;;;;;;;;;4814219;29;20095;-75
2022/12/20 10:43:02;;;;;;;6.30;3.75;;;;;;;;;;4819904;29;20049;-75
2022/12/20 10:45:38;;;;;;;4.57;2.95;;;;;;;;;;4811151;29;20088;-75
2022/12/20 10:48:06;;;;;;;7.28;3.25;;;;;;;;;;4828931;29;20057;-75
2022/12/20 10:50:32;;;;;;;4.93;2.92;;;;;;;;;;4815553;29;20049;-75
2022/12/20 10:53:26;;;;;;;4.97;2.85;;;;;;;;;;4817741;29;20049;-74
2022/12/20 10:55:53;;;;;;;8.18;3.20;;;;;;;;;;4804110;29;20066;-73
2022/12/20 10:58:31;;;;;;;3.30;2.88;;;;;;;;;;4811504;29;20068;-74
2022/12/20 11:01:12;;;;;;;4.90;2.92;;;;;;;;;;4810624;29;20041;-74
2022/12/20 11:03:58;;;;;;;4.13;3.20;;;;;;;;;;4830304;29;20106;-74
2022/12/20 11:06:27;;;;;;;4.35;2.47;;;;;;;;;;4817841;29;20054;-71
2022/12/20 11:08:53;;;;;;;5.28;2.90;;;;;;;;;;4816211;29;20118;-71
2022/12/20 11:11:19;;;;;;;4.28;3.00;;;;;;;;;;4807931;29;20060;-71
2022/12/20 11:13:45;;;;;;;4.22;3.00;;;;;;;;;;4817313;29;20387;-71
2022/12/20 11:16:24;;;;;;;4.15;3.28;;;;;;;;;;4814533;29;20794;-71
2022/12/20 11:18:50;;;;;;;4.35;2.20;;;;;;;;;;4819425;29;20041;-71
2022/12/20 11:21:34;;;;;;;5.32;2.65;;;;;;;;;;4805223;29;20038;-71
2022/12/20 11:24:00;;;;;;;;;;;;;;;;;;4815548;29;20073;-71
2022/12/20 11:26:45;;;;;;;3.47;2.67;;;;;;;;;;4813944;29;19935;-70
2022/12/20 11:29:23;;;;;;;3.97;2.67;;;;;;;;;;4806918;29;20084;-71
2022/12/20 11:32:08;;;;;;;4.38;3.22;;;;;;;;;;4822295;29;20109;-71
2022/12/20 11:34:50;;;;;;;6.40;3.05;;;;;;;;;;4813535;29;20439;-71
2022/12/20 11:37:21;;;;;;;5.57;3.63;;;;;;;;;;4828657;29;20102;-71
2022/12/20 11:40:04;;;;;;;7.13;3.72;;;;;;;;;;4808573;29;20448;-71
2022/12/20 11:42:49;;;;;;;4.53;3.22;;;;;;;;;;4817193;29;20771;-70
2022/12/20 11:45:22;;;;;;;5.70;3.08;;;;;;;;;;4818602;29;20049;-70
2022/12/20 11:47:51;;;;;;;6.05;4.30;;;;;;;;;;4809257;29;20060;-70
2022/12/20 11:50:27;;;;;;;4.03;3.30;;;;;;;;;;4815707;29;21217;-71
2022/12/20 11:52:53;;;;;;;8.02;3.80;;;;;;;;;;4822660;29;20415;-72
2022/12/20 11:55:23;;;;;;;6.03;3.28;;;;;;;;;;4809887;29;20398;-72
2022/12/20 11:58:05;;;;;;;6.18;3.55;;;;;;;;;;4815425;29;20057;-72
2022/12/20 12:00:35;;;;;;;4.47;3.67;;;;;;;;;;4809548;29;21977;-72
2022/12/20 12:03:18;;;;;;;6.30;3.63;;;;;;;;;;4807269;29;20536;-72
2022/12/20 12:05:47;;;;;;;7.18;4.10;;;;;;;;;;4825595;29;20133;-72
2022/12/20 12:08:18;;;;;;;5.47;3.50;;;;;;;;;;4814708;29;20096;-72
2022/12/20 12:10:47;;;;;;;7.43;3.90;;;;;;;;;;4827848;29;20076;-72
2022/12/20 12:13:16;;;;;;;3.72;2.97;;;;;;;;;;4809903;29;20050;-72
2022/12/20 12:15:48;;;;;;;4.18;3.42;;;;;;;;;;4807099;29;20394;-72
2022/12/20 12:18:17;;;;;;;4.60;3.45;;;;;;;;;;4812496;29;20125;-72
2022/12/20 12:20:50;;;;;;;5.78;3.35;;;;;;;;;;4828183;29;20060;-72
2022/12/20 12:23:22;;;;;;;8.68;3.78;;;;;;;;;;4810090;29;20136;-71
2022/12/20 12:25:48;;;;;;;5.00;3.95;;;;;;;;;;4799021;29;20435;-71
2022/12/20 12:28:15;;;;;;;3.85;3.42;;;;;;;;;;4813021;29;20066;-71
2022/12/20 12:30:45;;;;;;;4.55;3.17;;;;;;;;;;4798477;29;20108;-72
2022/12/20 12:33:18;;;;;;;6.78;4.13;;;;;;;;;;4806227;29;20058;-71
2022/12/20 12:36:02;;;;;;;6.85;3.88;;;;;;;;;;4814733;29;20149;-72
2022/12/20 12:38:41;;;;;;;5.55;3.97;;;;;;;;;;4818931;29;20142;-72
2022/12/20 12:41:16;;;;;;;6.65;4.43;;;;;;;;;;4813036;29;20160;-72
2022/12/20 12:43:52;;;;;;;4.15;3.85;;;;;;;;;;4800745;29;21532;-73
2022/12/20 12:46:22;;;;;;;5.35;4.22;;;;;;;;;;4827801;29;20057;-72
2022/12/20 12:49:03;;;;;;;7.93;5.43;;;;;;;;;;4814902;29;20090;-73
2022/12/20 12:51:33;;;;;;;7.72;5.10;;;;;;;;;;4827232;29;20045;-73
2022/12/20 12:54:04;;;;;;;9.50;5.22;;;;;;;;;;4809659;29;20056;-73
2022/12/20 12:56:33;;;;;;;5.78;5.28;;;;;;;;;;4815575;29;20055;-73
2022/12/20 12:59:06;;;;;;;8.15;5.43;;;;;;;;;;4820521;29;20052;-72
2022/12/20 13:01:52;;;;;;;7.47;5.18;;;;;;;;;;4818452;29;20144;-73
2022/12/20 13:04:21;;;;;;;9.45;6.68;;;;;;;;;;4813385;29;20089;-72
2022/12/20 13:06:47;;;;;;;11.70;6.35;;;;;;;;;;4808084;29;20079;-72
2022/12/20 13:09:25;;;;;;;6.88;5.75;;;;;;;;;;4813953;29;20046;-72
2022/12/20 13:11:55;;;;;;;9.75;6.43;;;;;;;;;;4810581;29;20060;-72
2022/12/20 13:14:24;;;;;;;5.07;4.57;;;;;;;;;;4824995;29;20061;-72
2022/12/20 13:17:00;;;;;;;6.68;5.55;;;;;;;;;;4815466;29;20052;-72
2022/12/20 13:19:26;;;;;;;6.57;5.32;;;;;;;;;;4816958;29;20057;-72
2022/12/20 13:21:58;;;;;;;8.25;6.30;;;;;;;;;;4816075;29;20506;-72
2022/12/20 13:24:45;;;;;;;8.05;5.97;;;;;;;;;;4800025;29;20159;-73
2022/12/20 13:27:15;;;;;;;8.38;6.95;;;;;;;;;;4809517;29;20099;-73
2022/12/20 13:29:51;;;;;;;8.60;6.00;;;;;;;;;;4815248;29;20045;-73
2022/12/20 13:32:36;;;;;;;8.98;6.82;;;;;;;;;;4808440;29;20137;-73
2022/12/20 13:35:02;;;;;;;7.72;6.38;;;;;;;;;;4802278;29;20710;-73
2022/12/20 13:37:48;;;;;;;8.15;6.68;;;;;;;;;;4802434;29;20050;-73
2022/12/20 13:40:21;;;;;;;6.78;5.60;;;;;;;;;;4815600;29;20104;-73
2022/12/20 13:42:47;;;;;;;7.03;6.32;;;;;;;;;;4809269;29;20574;-73
2022/12/20 13:45:14;;;;;;;5.85;4.85;;;;;;;;;;4808007;29;20052;-72
2022/12/20 13:47:45;;;;;;;6.03;5.43;;;;;;;;;;4824625;29;20106;-73
2022/12/20 13:50:29;;;;;;;8.85;5.95;;;;;;;;;;4827041;29;20060;-71
2022/12/20 13:52:56;;;;;;;;;;;;;;;;;;4802045;29;20050;-72
2022/12/20 13:55:41;;;;;;;7.70;5.72;;;;;;;;;;4808953;29;19973;-72
2022/12/20 13:58:17;;;;;;;7.50;6.07;;;;;;;;;;4824023;29;20046;-72
2022/12/20 14:00:44;;;;;;;9.38;5.85;;;;;;;;;;4813443;29;20105;-72
2022/12/20 14:03:16;;;;;;;8.85;4.43;;;;;;;;;;4828476;29;20160;-72
2022/12/20 14:05:42;;;;;;;11.95;6.88;;;;;;;;;;4811787;29;20054;-72
2022/12/20 14:08:10;;;;;;;11.35;6.60;;;;;;;;;;4814645;29;20050;-72
2022/12/20 14:10:36;;;;;;;7.90;6.40;;;;;;;;;;4814957;29;20065;-72
2022/12/20 14:13:03;;;;;;;8.10;5.85;;;;;;;;;;4802490;29;20104;-72
2022/12/20 14:15:33;;;;;;;8.63;7.80;;;;;;;;;;4813523;29;20085;-72
2022/12/20 14:18:25;;;;;;;8.20;7.38;;;;;;;;;;4827530;29;20083;-72
2022/12/20 14:20:56;;;;;;;9.00;7.88;;;;;;;;;;4820951;29;21062;-72
2022/12/20 14:23:24;;;;;;;10.68;7.70;;;;;;;;;;4812875;29;20050;-71
2022/12/20 14:25:56;;;;;;;12.38;8.82;;;;;;;;;;4808121;29;20529;-71
2022/12/20 14:28:36;;;;;;;11.85;8.43;;;;;;;;;;4816731;29;20049;-71
2022/12/20 14:31:03;;;;;;;13.50;9.00;;;;;;;;;;4828168;29;20054;-72
2022/12/20 14:33:39;;;;;;;13.80;8.90;;;;;;;;;;4809181;29;20503;-71
2022/12/20 14:36:15;;;;;;;8.57;7.47;;;;;;;;;;4817928;29;20053;-71
2022/12/20 14:38:41;;;;;;;15.48;8.90;;;;;;;;;;4812431;29;20118;-71
2022/12/20 14:41:26;;;;;;;18.40;9.32;;;;;;;;;;4800072;29;20051;-71
2022/12/20 14:43:56;;;;;;;12.30;9.02;;;;;;;;;;4790474;29;20060;-71
2022/12/20 14:46:22;;;;;;;13.15;10.95;;;;;;;;;;4797903;29;20041;-71
2022/12/20 14:48:49;;;;;;;13.65;10.82;;;;;;;;;;4786836;29;20121;-71
2022/12/20 14:51:21;;;;;;;10.45;9.25;;;;;;;;;;4797939;29;21524;-71
2022/12/20 14:53:48;;;;;;;10.75;8.98;;;;;;;;;;4794989;29;20062;-72
2022/12/20 14:56:17;;;;;;;13.88;11.07;;;;;;;;;;4786463;29;20045;-71
2022/12/20 14:58:43;;;;;;;13.10;8.85;;;;;;;;;;4800335;29;20046;-72
2022/12/20 15:01:17;;;;;;;16.40;12.80;;;;;;;;;;4786154;29;20057;-71
2022/12/20 15:03:50;;;;;;;16.30;11.77;;;;;;;;;;4798236;29;20057;-72